メインページ
METAR-TAF:

METAR-TAF

空港 :

ジョモ・ケニヤッタ国際空港

ナイロビ, ケニヤ

緯度: 01-19S, 経度: 036-55E, 海抜: 1624m

現時点の気象観測

当レポートは8時間48分前の07:00(UTC)に作成
南東の風 6kt
気温 17°C
湿度 77%
気圧 1024 hPa
視程10km以上
高度1800ftの曇り

METAR: HKJK 250700Z 13006KT 9999 OVC018 17/13 Q1024

時間: 18:48 (15:48 UTC)

予報

当レポートは4時間48分前の11:00(UTC)に作成
予報は25日の 12時(UTC)から 26日の 18時(UTC)まで有効
南東の風 5kt
視程10km以上
高度2200ftの千切れ雲あり
25日の 12時(UTC)から 25日の 18時(UTC)まで一時的に
東/南東の風 10kt
25日の 20時(UTC)から 25日の 23時(UTC)まで徐々に
変向風 5kt
高度2100ftの雲は散在している
26日の 00時(UTC)から 26日の 06時(UTC)まで一時的に
の風 5kt
高度500ftの雲は散在している
高度1500ftの千切れ雲あり
小霧雨
26日の 08時(UTC)から 26日の 11時(UTC)まで徐々に
南/南東の風 5kt
高度2000ftの千切れ雲あり
高度8000ftの千切れ雲あり

TAF: HKJK 251100Z 2512/2618 14005KT 9999 BKN022 TEMPO 2512/2518 12010KT BECMG 2520/2523 VRB05KT SCT021 TEMPO 2600/2606 18005KT -DZ SCT005 BKN015 BECMG 2608/2611 15005KT BKN020 BKN080

4,000以上の空港の気象観測と天気予報(METAR報とTAF報)

利用可能な観測所は地図上に黄色い丸と赤い丸で示す。

丸の上にカーソルを重ねると観測所名を参照できる。

次にクリックすると気象観測と天気予報を参照できる。

マップの切り替え:黒色「×」印の緑ボタンをクリックして拡大、「-」印の緑ボタンをクリックして縮小、緑色の三角印をクリックして隣りの地図に切り替え


METAR-TAF: